Aeroporto :
LOGIN :

Iscrizione | Disclaimer

   EN    FR    IT 

 










Sommario :    VFR   VFR Marginale   IFR   IFR Intensivo   IFR Molto Intensivo
Visibilità : 
Base nubi : 
>= 8 km
>= 3000ft
5 / 8 km
1000 / 3000 ft
1500m / 5 km
500 / 1000 ft
800 / 1500m
200 / 500 ft
< 800m
< 200 ft
Simboli :   Temporali  Nebbia  Neve Forte  Precipitazioni Forti  Vento > 20 kt
SIGMETs :   Varie  Temporali  Ghiacco  Turbolenza  Onda orograficha  Ceneri Vulcaniche






- Altitudine del aeroporto : 665 ft
- Codice IATA : NOC


EIKN - Connaught / Knock- Ireland West

ULTIMO METAR :
  • 130700Z 27023KT 9999 SCT016 FEW021CB BKN034 05/03 Q0978 NOSIG

METARs OBSOLETI :
  • 130630Z 27023G36KT 9000 -SHRA BKN016 FEW020CB BKN030 05/03 Q0978 NOSIG
  • 130600Z 27024G35KT 9999 BKN015 BKN031 05/03 Q0977 NOSIG

TAF TAF EIKN
Valido dal 13 a 06 ore il 14 a 06 ore UTC


130500Z 1306/1406 29020G30KT 9999 FEW015 BKN030
TEMPO 1306/1308 29025G45KT
TEMPO 1306/1318 -SHRA SCT018CB
PROB30
TEMPO 1306/1310 4000 SHRA
BECMG 1313/1315 26015G25KT
BECMG 1316/1318 26012KT
BECMG 1320/1322 27015G25KT
TEMPO 1401/1406 25025G35KT RA FEW018CB



MetMap, La meteo Aeronautica in un colpo d'occhio ! - Copyright ORBIFLY Dicembre 2007 - Disclaimer

ORBIFLY MET'MAP TEAM :

Programmazione e sviluppo : Alexandra Zaïnal
Concezione : Baudouin d'Aumeries
Aiuto per la programmazione : Marc-Olivier Méhu
Supporto tecnico e logistico : Manuel Goepfert
Aiuto per la traduzione : Arnaldo La Scala

Contatto : metmap@orbifly.com




FONTI E CREDITI :

   NOAA